sensor_id;sensor_type;location;lat;lon;timestamp;P1;durP1;ratioP1;P2;durP2;ratioP2
5569;SDS011;2808;51.240;6.794;2024-01-11T00:01:01;41.08;;;14.95;;
5569;SDS011;2808;51.240;6.794;2024-01-11T00:03:34;44.05;;;16.15;;
5569;SDS011;2808;51.240;6.794;2024-01-11T00:06:07;34.17;;;14.63;;
5569;SDS011;2808;51.240;6.794;2024-01-11T00:08:36;38.15;;;14.00;;
5569;SDS011;2808;51.240;6.794;2024-01-11T00:11:11;34.75;;;14.10;;
5569;SDS011;2808;51.240;6.794;2024-01-11T00:13:41;41.97;;;15.52;;
5569;SDS011;2808;51.240;6.794;2024-01-11T00:16:11;39.22;;;14.68;;
5569;SDS011;2808;51.240;6.794;2024-01-11T00:25:45;49.22;;;15.68;;
5569;SDS011;2808;51.240;6.794;2024-01-11T00:28:55;40.65;;;14.77;;
5569;SDS011;2808;51.240;6.794;2024-01-11T00:45:15;39.13;;;14.77;;
5569;SDS011;2808;51.240;6.794;2024-01-11T00:48:07;40.70;;;14.90;;
5569;SDS011;2808;51.240;6.794;2024-01-11T00:51:40;43.58;;;16.42;;
5569;SDS011;2808;51.240;6.794;2024-01-11T00:57:07;48.33;;;16.00;;
5569;SDS011;2808;51.240;6.794;2024-01-11T00:59:47;42.38;;;15.38;;
5569;SDS011;2808;51.240;6.794;2024-01-11T01:02:24;39.17;;;15.10;;
5569;SDS011;2808;51.240;6.794;2024-01-11T01:05:08;34.28;;;13.82;;
5569;SDS011;2808;51.240;6.794;2024-01-11T01:07:53;38.05;;;14.80;;
5569;SDS011;2808;51.240;6.794;2024-01-11T01:10:22;40.08;;;15.75;;
5569;SDS011;2808;51.240;6.794;2024-01-11T01:12:57;39.97;;;14.65;;
5569;SDS011;2808;51.240;6.794;2024-01-11T01:15:39;47.15;;;17.05;;
5569;SDS011;2808;51.240;6.794;2024-01-11T01:18:19;44.97;;;16.95;;
5569;SDS011;2808;51.240;6.794;2024-01-11T01:21:15;39.00;;;15.17;;
5569;SDS011;2808;51.240;6.794;2024-01-11T01:24:14;42.55;;;14.80;;
5569;SDS011;2808;51.240;6.794;2024-01-11T01:28:41;42.15;;;16.15;;
5569;SDS011;2808;51.240;6.794;2024-01-11T01:30:54;44.95;;;15.75;;
5569;SDS011;2808;51.240;6.794;2024-01-11T01:33:24;35.15;;;14.35;;
5569;SDS011;2808;51.240;6.794;2024-01-11T01:36:15;36.25;;;14.02;;
5569;SDS011;2808;51.240;6.794;2024-01-11T01:45:28;41.67;;;14.13;;
5569;SDS011;2808;51.240;6.794;2024-01-11T01:48:22;44.38;;;15.52;;
5569;SDS011;2808;51.240;6.794;2024-01-11T01:51:15;37.70;;;15.35;;
5569;SDS011;2808;51.240;6.794;2024-01-11T01:57:13;45.30;;;16.15;;
5569;SDS011;2808;51.240;6.794;2024-01-11T01:59:57;48.90;;;16.65;;
5569;SDS011;2808;51.240;6.794;2024-01-11T02:03:05;40.50;;;16.90;;
5569;SDS011;2808;51.240;6.794;2024-01-11T02:06:02;47.40;;;17.90;;
5569;SDS011;2808;51.240;6.794;2024-01-11T02:08:56;50.15;;;17.42;;
5569;SDS011;2808;51.240;6.794;2024-01-11T02:11:46;41.92;;;16.25;;
5569;SDS011;2808;51.240;6.794;2024-01-11T02:14:46;46.05;;;17.23;;
5569;SDS011;2808;51.240;6.794;2024-01-11T02:20:52;42.30;;;16.60;;
5569;SDS011;2808;51.240;6.794;2024-01-11T02:23:42;37.28;;;14.55;;
5569;SDS011;2808;51.240;6.794;2024-01-11T02:29:58;43.30;;;16.13;;
5569;SDS011;2808;51.240;6.794;2024-01-11T02:36:00;39.83;;;16.85;;
5569;SDS011;2808;51.240;6.794;2024-01-11T02:39:01;52.95;;;17.30;;
5569;SDS011;2808;51.240;6.794;2024-01-11T02:41:58;49.55;;;17.48;;
5569;SDS011;2808;51.240;6.794;2024-01-11T02:47:30;42.17;;;17.60;;
5569;SDS011;2808;51.240;6.794;2024-01-11T02:50:10;47.63;;;16.85;;
5569;SDS011;2808;51.240;6.794;2024-01-11T02:56:26;40.45;;;16.65;;
5569;SDS011;2808;51.240;6.794;2024-01-11T02:59:30;43.08;;;16.95;;
5569;SDS011;2808;51.240;6.794;2024-01-11T03:02:43;49.80;;;17.77;;
5569;SDS011;2808;51.240;6.794;2024-01-11T03:05:45;41.08;;;16.40;;
5569;SDS011;2808;51.240;6.794;2024-01-11T03:08:47;46.10;;;17.50;;
5569;SDS011;2808;51.240;6.794;2024-01-11T03:14:38;48.53;;;18.45;;
5569;SDS011;2808;51.240;6.794;2024-01-11T03:17:47;44.10;;;17.60;;
5569;SDS011;2808;51.240;6.794;2024-01-11T03:20:54;48.42;;;19.48;;
5569;SDS011;2808;51.240;6.794;2024-01-11T03:23:50;39.92;;;16.48;;
5569;SDS011;2808;51.240;6.794;2024-01-11T03:26:29;51.65;;;18.83;;
5569;SDS011;2808;51.240;6.794;2024-01-11T03:29:44;45.95;;;18.33;;
5569;SDS011;2808;51.240;6.794;2024-01-11T03:32:44;48.67;;;18.20;;
5569;SDS011;2808;51.240;6.794;2024-01-11T03:42:23;50.13;;;17.98;;
5569;SDS011;2808;51.240;6.794;2024-01-11T03:56:35;48.60;;;18.58;;
5569;SDS011;2808;51.240;6.794;2024-01-11T03:59:50;53.83;;;18.08;;
5569;SDS011;2808;51.240;6.794;2024-01-11T04:03:21;52.53;;;17.85;;
5569;SDS011;2808;51.240;6.794;2024-01-11T04:06:23;47.60;;;18.02;;
5569;SDS011;2808;51.240;6.794;2024-01-11T04:12:38;54.42;;;18.55;;
5569;SDS011;2808;51.240;6.794;2024-01-11T04:23:13;51.60;;;19.52;;
5569;SDS011;2808;51.240;6.794;2024-01-11T04:33:50;52.67;;;18.70;;
5569;SDS011;2808;51.240;6.794;2024-01-11T04:36:07;44.35;;;18.45;;
5569;SDS011;2808;51.240;6.794;2024-01-11T04:39:24;52.22;;;18.80;;
5569;SDS011;2808;51.240;6.794;2024-01-11T04:43:14;50.78;;;19.40;;
5569;SDS011;2808;51.240;6.794;2024-01-11T04:52:52;59.90;;;18.75;;
5569;SDS011;2808;51.240;6.794;2024-01-11T04:56:29;45.90;;;17.83;;
5569;SDS011;2808;51.240;6.794;2024-01-11T04:59:33;48.17;;;18.83;;
5569;SDS011;2808;51.240;6.794;2024-01-11T05:06:33;63.50;;;19.80;;
5569;SDS011;2808;51.240;6.794;2024-01-11T05:09:45;51.00;;;19.45;;
5569;SDS011;2808;51.240;6.794;2024-01-11T05:12:45;52.00;;;18.88;;
5569;SDS011;2808;51.240;6.794;2024-01-11T05:15:26;51.38;;;20.00;;
5569;SDS011;2808;51.240;6.794;2024-01-11T05:18:10;48.10;;;19.48;;
5569;SDS011;2808;51.240;6.794;2024-01-11T05:21:11;55.40;;;21.42;;
5569;SDS011;2808;51.240;6.794;2024-01-11T05:30:29;66.97;;;23.02;;
5569;SDS011;2808;51.240;6.794;2024-01-11T05:46:39;55.47;;;21.15;;
5569;SDS011;2808;51.240;6.794;2024-01-11T05:53:36;65.20;;;25.90;;
5569;SDS011;2808;51.240;6.794;2024-01-11T06:00:37;52.63;;;19.27;;
5569;SDS011;2808;51.240;6.794;2024-01-11T06:07:28;62.65;;;20.08;;
5569;SDS011;2808;51.240;6.794;2024-01-11T06:14:08;57.03;;;18.60;;
5569;SDS011;2808;51.240;6.794;2024-01-11T06:20:32;55.47;;;18.98;;
5569;SDS011;2808;51.240;6.794;2024-01-11T06:28:02;47.75;;;18.45;;
5569;SDS011;2808;51.240;6.794;2024-01-11T06:37:11;56.15;;;20.30;;
5569;SDS011;2808;51.240;6.794;2024-01-11T06:39:59;54.10;;;20.48;;
5569;SDS011;2808;51.240;6.794;2024-01-11T06:43:09;56.45;;;20.58;;
5569;SDS011;2808;51.240;6.794;2024-01-11T07:06:52;62.55;;;19.83;;
5569;SDS011;2808;51.240;6.794;2024-01-11T07:10:20;55.55;;;20.63;;
5569;SDS011;2808;51.240;6.794;2024-01-11T07:13:39;56.60;;;20.33;;
5569;SDS011;2808;51.240;6.794;2024-01-11T07:20:36;58.65;;;19.92;;
5569;SDS011;2808;51.240;6.794;2024-01-11T07:47:47;57.17;;;20.23;;
5569;SDS011;2808;51.240;6.794;2024-01-11T07:51:09;52.65;;;20.35;;
5569;SDS011;2808;51.240;6.794;2024-01-11T07:54:19;59.38;;;20.30;;
5569;SDS011;2808;51.240;6.794;2024-01-11T07:57:25;59.97;;;20.40;;
5569;SDS011;2808;51.240;6.794;2024-01-11T08:00:05;65.45;;;20.00;;
5569;SDS011;2808;51.240;6.794;2024-01-11T08:06:58;60.53;;;21.27;;
5569;SDS011;2808;51.240;6.794;2024-01-11T08:12:55;54.85;;;22.30;;
5569;SDS011;2808;51.240;6.794;2024-01-11T08:25:32;63.78;;;22.88;;
5569;SDS011;2808;51.240;6.794;2024-01-11T08:31:50;52.85;;;21.17;;
5569;SDS011;2808;51.240;6.794;2024-01-11T08:34:42;63.22;;;22.52;;
5569;SDS011;2808;51.240;6.794;2024-01-11T08:37:51;66.05;;;23.10;;
5569;SDS011;2808;51.240;6.794;2024-01-11T08:40:59;61.00;;;21.70;;
5569;SDS011;2808;51.240;6.794;2024-01-11T08:43:41;54.67;;;21.10;;
5569;SDS011;2808;51.240;6.794;2024-01-11T08:46:10;58.13;;;21.73;;
5569;SDS011;2808;51.240;6.794;2024-01-11T08:48:38;57.85;;;22.02;;
5569;SDS011;2808;51.240;6.794;2024-01-11T08:51:14;66.38;;;23.02;;
5569;SDS011;2808;51.240;6.794;2024-01-11T08:53:46;59.38;;;22.90;;
5569;SDS011;2808;51.240;6.794;2024-01-11T08:56:19;50.08;;;21.67;;
5569;SDS011;2808;51.240;6.794;2024-01-11T08:58:53;77.78;;;23.80;;
5569;SDS011;2808;51.240;6.794;2024-01-11T09:01:37;57.92;;;22.65;;
5569;SDS011;2808;51.240;6.794;2024-01-11T09:22:00;53.03;;;21.87;;
5569;SDS011;2808;51.240;6.794;2024-01-11T09:25:34;52.77;;;21.90;;
5569;SDS011;2808;51.240;6.794;2024-01-11T09:28:17;58.40;;;21.93;;
5569;SDS011;2808;51.240;6.794;2024-01-11T09:31:19;61.30;;;22.00;;
5569;SDS011;2808;51.240;6.794;2024-01-11T09:33:47;61.97;;;22.60;;
5569;SDS011;2808;51.240;6.794;2024-01-11T09:36:48;54.03;;;22.27;;
5569;SDS011;2808;51.240;6.794;2024-01-11T09:39:42;60.67;;;23.30;;
5569;SDS011;2808;51.240;6.794;2024-01-11T09:42:22;57.10;;;22.33;;
5569;SDS011;2808;51.240;6.794;2024-01-11T09:44:56;57.13;;;22.87;;
5569;SDS011;2808;51.240;6.794;2024-01-11T09:47:34;47.33;;;21.77;;
5569;SDS011;2808;51.240;6.794;2024-01-11T09:50:08;62.23;;;22.87;;
5569;SDS011;2808;51.240;6.794;2024-01-11T09:52:42;50.50;;;20.77;;
5569;SDS011;2808;51.240;6.794;2024-01-11T09:55:18;58.50;;;22.57;;
5569;SDS011;2808;51.240;6.794;2024-01-11T09:57:49;51.33;;;20.83;;
5569;SDS011;2808;51.240;6.794;2024-01-11T10:00:22;52.97;;;23.80;;
5569;SDS011;2808;51.240;6.794;2024-01-11T10:02:54;53.50;;;21.40;;
5569;SDS011;2808;51.240;6.794;2024-01-11T10:05:22;68.37;;;22.40;;
5569;SDS011;2808;51.240;6.794;2024-01-11T10:07:55;57.77;;;22.67;;
5569;SDS011;2808;51.240;6.794;2024-01-11T10:10:48;58.00;;;22.63;;
5569;SDS011;2808;51.240;6.794;2024-01-11T10:13:51;54.33;;;23.13;;
5569;SDS011;2808;51.240;6.794;2024-01-11T10:16:17;56.93;;;22.90;;
5569;SDS011;2808;51.240;6.794;2024-01-11T10:18:48;56.13;;;23.97;;
5569;SDS011;2808;51.240;6.794;2024-01-11T10:21:18;57.63;;;23.80;;
5569;SDS011;2808;51.240;6.794;2024-01-11T10:23:49;58.17;;;21.17;;
5569;SDS011;2808;51.240;6.794;2024-01-11T10:26:23;57.37;;;25.00;;
5569;SDS011;2808;51.240;6.794;2024-01-11T10:28:51;56.23;;;22.10;;
5569;SDS011;2808;51.240;6.794;2024-01-11T10:31:28;66.30;;;22.73;;
5569;SDS011;2808;51.240;6.794;2024-01-11T10:33:56;61.47;;;22.70;;
5569;SDS011;2808;51.240;6.794;2024-01-11T10:36:30;67.77;;;23.87;;
5569;SDS011;2808;51.240;6.794;2024-01-11T10:39:01;50.50;;;21.47;;
5569;SDS011;2808;51.240;6.794;2024-01-11T10:41:37;54.13;;;21.63;;
5569;SDS011;2808;51.240;6.794;2024-01-11T10:44:17;50.13;;;21.93;;
5569;SDS011;2808;51.240;6.794;2024-01-11T10:46:47;57.40;;;21.00;;
5569;SDS011;2808;51.240;6.794;2024-01-11T10:52:54;59.93;;;20.73;;
5569;SDS011;2808;51.240;6.794;2024-01-11T10:56:12;60.20;;;22.03;;
5569;SDS011;2808;51.240;6.794;2024-01-11T11:05:41;58.03;;;20.93;;
5569;SDS011;2808;51.240;6.794;2024-01-11T11:11:39;51.90;;;20.13;;
5569;SDS011;2808;51.240;6.794;2024-01-11T11:14:25;56.13;;;21.57;;
5569;SDS011;2808;51.240;6.794;2024-01-11T11:17:19;57.17;;;21.80;;
5569;SDS011;2808;51.240;6.794;2024-01-11T11:20:00;53.97;;;21.83;;
5569;SDS011;2808;51.240;6.794;2024-01-11T11:23:03;59.40;;;22.20;;
5569;SDS011;2808;51.240;6.794;2024-01-11T11:25:38;56.60;;;22.83;;
5569;SDS011;2808;51.240;6.794;2024-01-11T11:28:58;60.67;;;26.80;;
5569;SDS011;2808;51.240;6.794;2024-01-11T11:34:17;52.63;;;21.87;;
5569;SDS011;2808;51.240;6.794;2024-01-11T11:37:29;57.53;;;21.10;;
5569;SDS011;2808;51.240;6.794;2024-01-11T11:48:56;64.40;;;20.97;;
5569;SDS011;2808;51.240;6.794;2024-01-11T11:51:50;56.43;;;21.10;;
5569;SDS011;2808;51.240;6.794;2024-01-11T11:55:01;55.70;;;22.40;;
5569;SDS011;2808;51.240;6.794;2024-01-11T11:57:54;46.63;;;21.87;;
5569;SDS011;2808;51.240;6.794;2024-01-11T12:00:22;46.73;;;21.10;;
5569;SDS011;2808;51.240;6.794;2024-01-11T12:03:01;47.73;;;18.93;;
5569;SDS011;2808;51.240;6.794;2024-01-11T12:05:33;50.40;;;19.73;;
5569;SDS011;2808;51.240;6.794;2024-01-11T12:08:08;46.03;;;19.07;;
5569;SDS011;2808;51.240;6.794;2024-01-11T12:10:41;37.60;;;16.63;;
5569;SDS011;2808;51.240;6.794;2024-01-11T12:16:30;41.80;;;17.53;;
5569;SDS011;2808;51.240;6.794;2024-01-11T12:19:07;56.63;;;21.20;;
5569;SDS011;2808;51.240;6.794;2024-01-11T12:21:57;42.63;;;16.93;;
5569;SDS011;2808;51.240;6.794;2024-01-11T12:28:39;47.77;;;18.00;;
5569;SDS011;2808;51.240;6.794;2024-01-11T12:31:57;45.13;;;20.10;;
5569;SDS011;2808;51.240;6.794;2024-01-11T12:34:36;45.57;;;18.37;;
5569;SDS011;2808;51.240;6.794;2024-01-11T12:37:37;55.10;;;20.97;;
5569;SDS011;2808;51.240;6.794;2024-01-11T12:44:05;57.00;;;21.00;;
5569;SDS011;2808;51.240;6.794;2024-01-11T12:53:10;57.20;;;20.00;;
5569;SDS011;2808;51.240;6.794;2024-01-11T12:55:47;51.50;;;20.80;;
5569;SDS011;2808;51.240;6.794;2024-01-11T12:58:18;53.00;;;20.47;;
5569;SDS011;2808;51.240;6.794;2024-01-11T13:00:47;55.53;;;20.40;;
5569;SDS011;2808;51.240;6.794;2024-01-11T13:07:03;46.33;;;19.20;;
5569;SDS011;2808;51.240;6.794;2024-01-11T13:10:27;44.30;;;18.57;;
5569;SDS011;2808;51.240;6.794;2024-01-11T13:12:58;45.83;;;18.97;;
5569;SDS011;2808;51.240;6.794;2024-01-11T13:15:26;47.90;;;19.43;;
5569;SDS011;2808;51.240;6.794;2024-01-11T13:18:07;48.23;;;18.60;;
5569;SDS011;2808;51.240;6.794;2024-01-11T13:20:46;48.07;;;18.93;;
5569;SDS011;2808;51.240;6.794;2024-01-11T13:23:18;47.40;;;19.00;;
5569;SDS011;2808;51.240;6.794;2024-01-11T13:25:47;43.70;;;18.77;;
5569;SDS011;2808;51.240;6.794;2024-01-11T13:28:17;45.83;;;19.37;;
5569;SDS011;2808;51.240;6.794;2024-01-11T13:31:04;50.70;;;17.10;;
5569;SDS011;2808;51.240;6.794;2024-01-11T13:33:35;45.27;;;17.27;;
5569;SDS011;2808;51.240;6.794;2024-01-11T13:36:13;42.60;;;18.47;;
5569;SDS011;2808;51.240;6.794;2024-01-11T13:38:41;49.13;;;18.70;;
5569;SDS011;2808;51.240;6.794;2024-01-11T13:41:10;42.80;;;16.73;;
5569;SDS011;2808;51.240;6.794;2024-01-11T13:43:41;35.67;;;15.17;;
5569;SDS011;2808;51.240;6.794;2024-01-11T13:46:11;45.40;;;16.80;;
5569;SDS011;2808;51.240;6.794;2024-01-11T13:48:51;31.93;;;14.77;;
5569;SDS011;2808;51.240;6.794;2024-01-11T13:51:25;39.10;;;15.80;;
5569;SDS011;2808;51.240;6.794;2024-01-11T13:54:10;36.70;;;14.67;;
5569;SDS011;2808;51.240;6.794;2024-01-11T13:56:40;34.07;;;14.70;;
5569;SDS011;2808;51.240;6.794;2024-01-11T13:59:16;39.37;;;15.90;;
5569;SDS011;2808;51.240;6.794;2024-01-11T14:04:54;44.03;;;15.50;;
5569;SDS011;2808;51.240;6.794;2024-01-11T14:07:43;42.60;;;16.13;;
5569;SDS011;2808;51.240;6.794;2024-01-11T14:10:36;42.03;;;16.27;;
5569;SDS011;2808;51.240;6.794;2024-01-11T14:13:22;42.60;;;16.53;;
5569;SDS011;2808;51.240;6.794;2024-01-11T14:15:54;41.50;;;17.20;;
5569;SDS011;2808;51.240;6.794;2024-01-11T14:18:53;47.67;;;17.00;;
5569;SDS011;2808;51.240;6.794;2024-01-11T14:21:35;40.57;;;17.13;;
5569;SDS011;2808;51.240;6.794;2024-01-11T14:24:06;37.93;;;14.97;;
5569;SDS011;2808;51.240;6.794;2024-01-11T14:26:35;37.00;;;15.93;;
5569;SDS011;2808;51.240;6.794;2024-01-11T14:29:26;40.73;;;14.70;;
5569;SDS011;2808;51.240;6.794;2024-01-11T14:31:54;36.00;;;14.70;;
5569;SDS011;2808;51.240;6.794;2024-01-11T14:34:28;40.00;;;16.90;;
5569;SDS011;2808;51.240;6.794;2024-01-11T14:37:05;39.00;;;15.90;;
5569;SDS011;2808;51.240;6.794;2024-01-11T14:39:41;38.10;;;14.50;;
5569;SDS011;2808;51.240;6.794;2024-01-11T14:42:16;36.80;;;14.30;;
5569;SDS011;2808;51.240;6.794;2024-01-11T14:45:02;43.43;;;12.77;;
5569;SDS011;2808;51.240;6.794;2024-01-11T14:47:36;36.17;;;14.20;;
5569;SDS011;2808;51.240;6.794;2024-01-11T14:50:04;37.47;;;14.97;;
5569;SDS011;2808;51.240;6.794;2024-01-11T14:52:36;33.73;;;15.47;;
5569;SDS011;2808;51.240;6.794;2024-01-11T14:55:13;46.20;;;16.00;;
5569;SDS011;2808;51.240;6.794;2024-01-11T14:57:41;36.30;;;14.60;;
5569;SDS011;2808;51.240;6.794;2024-01-11T15:00:12;35.30;;;15.97;;
5569;SDS011;2808;51.240;6.794;2024-01-11T15:02:42;41.10;;;15.93;;
5569;SDS011;2808;51.240;6.794;2024-01-11T15:05:19;35.87;;;15.73;;
5569;SDS011;2808;51.240;6.794;2024-01-11T15:08:09;38.03;;;15.10;;
5569;SDS011;2808;51.240;6.794;2024-01-11T15:10:47;44.50;;;15.27;;
5569;SDS011;2808;51.240;6.794;2024-01-11T15:20:17;51.03;;;15.43;;
5569;SDS011;2808;51.240;6.794;2024-01-11T15:23:00;36.17;;;14.37;;
5569;SDS011;2808;51.240;6.794;2024-01-11T15:25:38;36.20;;;15.10;;
5569;SDS011;2808;51.240;6.794;2024-01-11T15:28:12;38.90;;;14.40;;
5569;SDS011;2808;51.240;6.794;2024-01-11T15:30:39;39.33;;;15.00;;
5569;SDS011;2808;51.240;6.794;2024-01-11T15:33:20;37.03;;;14.53;;
5569;SDS011;2808;51.240;6.794;2024-01-11T15:35:52;36.90;;;15.17;;
5569;SDS011;2808;51.240;6.794;2024-01-11T15:38:23;34.40;;;13.50;;
5569;SDS011;2808;51.240;6.794;2024-01-11T15:40:55;40.00;;;15.27;;
5569;SDS011;2808;51.240;6.794;2024-01-11T15:43:29;39.13;;;15.80;;
5569;SDS011;2808;51.240;6.794;2024-01-11T15:46:19;36.33;;;14.23;;
5569;SDS011;2808;51.240;6.794;2024-01-11T15:48:50;40.07;;;15.03;;
5569;SDS011;2808;51.240;6.794;2024-01-11T15:51:24;35.30;;;14.70;;
5569;SDS011;2808;51.240;6.794;2024-01-11T15:54:05;38.07;;;13.57;;
5569;SDS011;2808;51.240;6.794;2024-01-11T15:57:07;41.93;;;13.60;;
5569;SDS011;2808;51.240;6.794;2024-01-11T16:03:12;38.70;;;14.50;;
5569;SDS011;2808;51.240;6.794;2024-01-11T16:05:48;38.80;;;15.00;;
5569;SDS011;2808;51.240;6.794;2024-01-11T16:08:38;34.77;;;13.70;;
5569;SDS011;2808;51.240;6.794;2024-01-11T16:11:27;32.10;;;12.87;;
5569;SDS011;2808;51.240;6.794;2024-01-11T16:16:50;37.83;;;13.80;;
5569;SDS011;2808;51.240;6.794;2024-01-11T16:19:44;30.53;;;13.40;;
5569;SDS011;2808;51.240;6.794;2024-01-11T16:22:21;25.33;;;11.70;;
5569;SDS011;2808;51.240;6.794;2024-01-11T16:25:12;27.20;;;12.67;;
5569;SDS011;2808;51.240;6.794;2024-01-11T16:27:41;35.43;;;12.60;;
5569;SDS011;2808;51.240;6.794;2024-01-11T16:30:14;33.67;;;13.70;;
5569;SDS011;2808;51.240;6.794;2024-01-11T16:32:45;25.97;;;11.83;;
5569;SDS011;2808;51.240;6.794;2024-01-11T16:35:20;29.83;;;11.53;;
5569;SDS011;2808;51.240;6.794;2024-01-11T16:37:49;30.57;;;12.20;;
5569;SDS011;2808;51.240;6.794;2024-01-11T16:40:28;41.57;;;16.60;;
5569;SDS011;2808;51.240;6.794;2024-01-11T16:42:56;32.33;;;12.40;;
5569;SDS011;2808;51.240;6.794;2024-01-11T16:45:26;27.60;;;11.37;;
5569;SDS011;2808;51.240;6.794;2024-01-11T16:48:01;31.00;;;12.30;;
5569;SDS011;2808;51.240;6.794;2024-01-11T16:50:45;40.63;;;14.37;;
5569;SDS011;2808;51.240;6.794;2024-01-11T16:53:23;35.17;;;13.53;;
5569;SDS011;2808;51.240;6.794;2024-01-11T16:55:56;26.90;;;11.13;;
5569;SDS011;2808;51.240;6.794;2024-01-11T17:01:44;28.93;;;10.33;;
5569;SDS011;2808;51.240;6.794;2024-01-11T17:04:14;30.73;;;11.73;;
5569;SDS011;2808;51.240;6.794;2024-01-11T17:09:45;29.23;;;11.33;;
5569;SDS011;2808;51.240;6.794;2024-01-11T17:12:14;26.37;;;10.07;;
5569;SDS011;2808;51.240;6.794;2024-01-11T17:14:59;26.23;;;11.50;;
5569;SDS011;2808;51.240;6.794;2024-01-11T17:17:26;31.00;;;13.53;;
5569;SDS011;2808;51.240;6.794;2024-01-11T17:19:54;32.57;;;12.93;;
5569;SDS011;2808;51.240;6.794;2024-01-11T17:22:24;28.00;;;11.63;;
5569;SDS011;2808;51.240;6.794;2024-01-11T17:24:52;26.90;;;12.00;;
5569;SDS011;2808;51.240;6.794;2024-01-11T17:27:22;27.90;;;11.60;;
5569;SDS011;2808;51.240;6.794;2024-01-11T17:29:50;32.50;;;12.17;;
5569;SDS011;2808;51.240;6.794;2024-01-11T17:32:21;27.73;;;11.80;;
5569;SDS011;2808;51.240;6.794;2024-01-11T17:34:49;25.07;;;11.10;;
5569;SDS011;2808;51.240;6.794;2024-01-11T17:37:19;30.23;;;12.10;;
5569;SDS011;2808;51.240;6.794;2024-01-11T17:39:55;24.57;;;11.33;;
5569;SDS011;2808;51.240;6.794;2024-01-11T17:42:23;28.10;;;11.63;;
5569;SDS011;2808;51.240;6.794;2024-01-11T17:44:55;23.97;;;12.03;;
5569;SDS011;2808;51.240;6.794;2024-01-11T17:47:23;26.10;;;11.43;;
5569;SDS011;2808;51.240;6.794;2024-01-11T17:49:51;23.77;;;11.53;;
5569;SDS011;2808;51.240;6.794;2024-01-11T17:52:21;29.47;;;12.93;;
5569;SDS011;2808;51.240;6.794;2024-01-11T17:54:51;26.90;;;12.60;;
5569;SDS011;2808;51.240;6.794;2024-01-11T17:57:20;26.30;;;11.97;;
5569;SDS011;2808;51.240;6.794;2024-01-11T18:00:00;27.57;;;11.87;;
5569;SDS011;2808;51.240;6.794;2024-01-11T18:02:32;29.30;;;12.37;;
5569;SDS011;2808;51.240;6.794;2024-01-11T18:04:59;28.83;;;12.37;;
5569;SDS011;2808;51.240;6.794;2024-01-11T18:07:27;23.20;;;11.20;;
5569;SDS011;2808;51.240;6.794;2024-01-11T18:10:05;34.73;;;13.03;;
5569;SDS011;2808;51.240;6.794;2024-01-11T18:12:34;25.87;;;12.13;;
5569;SDS011;2808;51.240;6.794;2024-01-11T18:15:02;27.70;;;12.30;;
5569;SDS011;2808;51.240;6.794;2024-01-11T18:17:32;28.57;;;12.37;;
5569;SDS011;2808;51.240;6.794;2024-01-11T18:20:09;30.00;;;12.57;;
5569;SDS011;2808;51.240;6.794;2024-01-11T18:22:44;35.80;;;13.37;;
5569;SDS011;2808;51.240;6.794;2024-01-11T18:25:12;33.30;;;13.90;;
5569;SDS011;2808;51.240;6.794;2024-01-11T18:27:41;32.30;;;13.50;;
5569;SDS011;2808;51.240;6.794;2024-01-11T18:30:12;28.60;;;12.50;;
5569;SDS011;2808;51.240;6.794;2024-01-11T18:32:40;33.50;;;14.50;;
5569;SDS011;2808;51.240;6.794;2024-01-11T18:35:09;36.20;;;13.40;;
5569;SDS011;2808;51.240;6.794;2024-01-11T18:37:37;43.17;;;17.03;;
5569;SDS011;2808;51.240;6.794;2024-01-11T18:40:10;34.77;;;14.77;;
5569;SDS011;2808;51.240;6.794;2024-01-11T18:42:39;33.43;;;15.40;;
5569;SDS011;2808;51.240;6.794;2024-01-11T18:45:11;32.73;;;12.70;;
5569;SDS011;2808;51.240;6.794;2024-01-11T18:47:39;30.17;;;13.20;;
5569;SDS011;2808;51.240;6.794;2024-01-11T18:50:10;30.30;;;13.23;;
5569;SDS011;2808;51.240;6.794;2024-01-11T18:52:37;34.70;;;13.10;;
5569;SDS011;2808;51.240;6.794;2024-01-11T18:55:07;34.87;;;13.20;;
5569;SDS011;2808;51.240;6.794;2024-01-11T18:57:38;31.93;;;13.50;;
5569;SDS011;2808;51.240;6.794;2024-01-11T19:00:10;34.07;;;15.27;;
5569;SDS011;2808;51.240;6.794;2024-01-11T19:02:41;32.67;;;14.10;;
5569;SDS011;2808;51.240;6.794;2024-01-11T19:05:13;38.60;;;13.33;;
5569;SDS011;2808;51.240;6.794;2024-01-11T19:07:44;28.20;;;12.90;;
5569;SDS011;2808;51.240;6.794;2024-01-11T19:12:59;33.90;;;14.23;;
5569;SDS011;2808;51.240;6.794;2024-01-11T19:21:57;37.30;;;14.67;;
5569;SDS011;2808;51.240;6.794;2024-01-11T21:52:24;36.77;;;14.80;;
5569;SDS011;2808;51.240;6.794;2024-01-11T21:55:27;38.37;;;15.60;;
5569;SDS011;2808;51.240;6.794;2024-01-11T21:58:04;34.60;;;14.53;;
5569;SDS011;2808;51.240;6.794;2024-01-11T22:01:00;35.40;;;15.83;;
5569;SDS011;2808;51.240;6.794;2024-01-11T22:03:54;39.87;;;17.60;;
5569;SDS011;2808;51.240;6.794;2024-01-11T22:06:24;43.40;;;17.43;;
5569;SDS011;2808;51.240;6.794;2024-01-11T22:09:46;41.13;;;17.73;;
5569;SDS011;2808;51.240;6.794;2024-01-11T22:12:13;41.93;;;17.07;;
5569;SDS011;2808;51.240;6.794;2024-01-11T22:14:54;43.53;;;16.20;;
5569;SDS011;2808;51.240;6.794;2024-01-11T22:17:22;37.70;;;17.50;;
5569;SDS011;2808;51.240;6.794;2024-01-11T22:19:50;42.43;;;16.87;;
5569;SDS011;2808;51.240;6.794;2024-01-11T22:22:18;43.87;;;17.37;;
5569;SDS011;2808;51.240;6.794;2024-01-11T22:24:47;53.63;;;16.93;;
5569;SDS011;2808;51.240;6.794;2024-01-11T22:27:15;37.07;;;17.70;;
5569;SDS011;2808;51.240;6.794;2024-01-11T22:29:48;35.83;;;17.87;;
5569;SDS011;2808;51.240;6.794;2024-01-11T22:32:19;44.90;;;17.33;;
5569;SDS011;2808;51.240;6.794;2024-01-11T22:34:51;39.13;;;18.07;;
5569;SDS011;2808;51.240;6.794;2024-01-11T22:37:24;38.97;;;16.97;;
5569;SDS011;2808;51.240;6.794;2024-01-11T22:39:56;34.50;;;16.80;;
5569;SDS011;2808;51.240;6.794;2024-01-11T22:42:27;41.07;;;17.73;;
5569;SDS011;2808;51.240;6.794;2024-01-11T22:45:06;41.17;;;18.20;;
5569;SDS011;2808;51.240;6.794;2024-01-11T22:47:36;51.43;;;19.23;;
5569;SDS011;2808;51.240;6.794;2024-01-11T22:50:05;46.53;;;20.83;;
5569;SDS011;2808;51.240;6.794;2024-01-11T22:52:43;45.17;;;19.93;;
5569;SDS011;2808;51.240;6.794;2024-01-11T22:55:21;47.83;;;19.73;;
5569;SDS011;2808;51.240;6.794;2024-01-11T22:57:49;44.40;;;20.13;;
5569;SDS011;2808;51.240;6.794;2024-01-11T23:00:17;45.67;;;20.10;;
5569;SDS011;2808;51.240;6.794;2024-01-11T23:02:55;42.00;;;20.20;;
5569;SDS011;2808;51.240;6.794;2024-01-11T23:05:56;44.73;;;20.20;;
5569;SDS011;2808;51.240;6.794;2024-01-11T23:08:27;49.97;;;21.40;;
5569;SDS011;2808;51.240;6.794;2024-01-11T23:11:00;56.07;;;21.43;;
5569;SDS011;2808;51.240;6.794;2024-01-11T23:13:31;43.07;;;20.77;;
5569;SDS011;2808;51.240;6.794;2024-01-11T23:15:58;42.23;;;19.80;;
5569;SDS011;2808;51.240;6.794;2024-01-11T23:18:26;51.30;;;22.20;;
5569;SDS011;2808;51.240;6.794;2024-01-11T23:20:54;51.03;;;22.53;;
5569;SDS011;2808;51.240;6.794;2024-01-11T23:23:22;48.10;;;20.13;;
5569;SDS011;2808;51.240;6.794;2024-01-11T23:25:49;49.77;;;22.57;;
5569;SDS011;2808;51.240;6.794;2024-01-11T23:28:29;52.40;;;22.90;;
5569;SDS011;2808;51.240;6.794;2024-01-11T23:30:59;57.40;;;22.40;;
5569;SDS011;2808;51.240;6.794;2024-01-11T23:33:32;59.93;;;22.40;;
5569;SDS011;2808;51.240;6.794;2024-01-11T23:36:02;64.83;;;22.93;;
5569;SDS011;2808;51.240;6.794;2024-01-11T23:38:36;55.13;;;22.97;;
5569;SDS011;2808;51.240;6.794;2024-01-11T23:41:04;53.73;;;23.73;;
5569;SDS011;2808;51.240;6.794;2024-01-11T23:43:34;56.77;;;23.33;;
5569;SDS011;2808;51.240;6.794;2024-01-11T23:46:08;65.60;;;26.70;;
5569;SDS011;2808;51.240;6.794;2024-01-11T23:48:39;65.33;;;25.20;;
5569;SDS011;2808;51.240;6.794;2024-01-11T23:51:06;68.97;;;25.60;;
5569;SDS011;2808;51.240;6.794;2024-01-11T23:53:34;64.03;;;25.50;;
5569;SDS011;2808;51.240;6.794;2024-01-11T23:56:04;68.77;;;24.27;;
5569;SDS011;2808;51.240;6.794;2024-01-11T23:58:33;62.50;;;24.70;;
